Time,TemperatureF,DewpointF,PressureIn,WindDirection,WindDirectionDegrees,WindSpeedMPH,WindSpeedGustMPH,Humidity,HourlyPrecipIn,Conditions,Clouds,dailyrainin,SoftwareType,DateUTC
2013-12-06 00:00:00,55.0,53.0,29.95,SSE,161,0.0,3.0,95,0.00,,,-99.99,,2013-12-06 05:00:00,
2013-12-06 00:43:00,55.0,53.0,29.95,SSE,161,0.0,3.0,95,0.00,,,-99.99,,2013-12-06 05:43:00,
2013-12-06 00:53:00,55.0,53.0,29.95,SSE,161,0.0,3.0,95,0.00,,,-99.99,,2013-12-06 05:53:00,
2013-12-06 01:00:00,54.0,53.0,29.94,South,170,0.0,3.0,95,0.00,,,-99.99,,2013-12-06 06:00:00,
2013-12-06 01:42:00,54.0,53.0,29.94,South,170,0.0,3.0,95,0.00,,,-99.99,,2013-12-06 06:42:00,
2013-12-06 01:52:00,54.0,53.0,29.94,South,170,0.0,3.0,95,0.00,,,-99.99,,2013-12-06 06:52:00,
2013-12-06 02:00:00,55.0,54.0,29.93,South,186,0.0,3.0,95,0.00,,,-99.99,,2013-12-06 07:00:00,
2013-12-06 02:42:00,55.0,54.0,29.93,South,186,0.0,3.0,95,0.00,,,-99.99,,2013-12-06 07:42:00,
2013-12-06 02:52:00,55.0,54.0,29.93,South,186,0.0,3.0,95,0.00,,,-99.99,,2013-12-06 07:52:00,
2013-12-06 03:00:00,56.0,54.0,29.92,South,169,1.0,5.0,95,0.00,,,-99.99,,2013-12-06 08:00:00,
2013-12-06 03:42:00,56.0,54.0,29.92,South,169,1.0,5.0,95,0.00,,,-99.99,,2013-12-06 08:42:00,
2013-12-06 03:52:00,56.0,54.0,29.92,South,169,1.0,5.0,95,0.00,,,-99.99,,2013-12-06 08:52:00,
2013-12-06 04:00:00,57.0,55.0,29.89,South,184,0.0,7.0,95,0.00,,,-99.99,,2013-12-06 09:00:00,
2013-12-06 04:43:00,57.0,55.0,29.89,South,184,0.0,7.0,95,0.00,,,-99.99,,2013-12-06 09:43:00,
2013-12-06 04:54:00,57.0,55.0,29.89,South,184,0.0,7.0,95,0.00,,,-99.99,,2013-12-06 09:54:00,
2013-12-06 05:00:00,57.0,56.0,29.89,South,186,0.0,5.0,95,0.00,,,-99.99,,2013-12-06 10:00:00,
2013-12-06 05:43:00,57.0,56.0,29.89,South,186,0.0,5.0,95,0.00,,,-99.99,,2013-12-06 10:43:00,
2013-12-06 05:53:00,57.0,56.0,29.89,South,186,0.0,5.0,95,0.00,,,-99.99,,2013-12-06 10:53:00,
2013-12-06 06:00:00,59.0,58.0,29.91,SSW,212,5.0,7.0,95,0.01,,,-99.99,,2013-12-06 11:00:00,
2013-12-06 06:42:00,59.0,58.0,29.91,SSW,212,5.0,7.0,95,0.01,,,-99.99,,2013-12-06 11:42:00,
2013-12-06 06:54:00,59.0,58.0,29.91,SSW,212,5.0,7.0,95,0.01,,,-99.99,,2013-12-06 11:54:00,
2013-12-06 07:00:00,61.0,59.0,29.91,SW,227,8.0,-999.0,94,-99.99,,,-99.99,,2013-12-06 12:00:00,
2013-12-06 07:42:00,61.0,59.0,29.91,SW,227,8.0,-999.0,94,-99.99,,,-99.99,,2013-12-06 12:42:00,
2013-12-06 07:52:00,61.0,59.0,29.91,SW,227,8.0,-999.0,94,-99.99,,,-99.99,,2013-12-06 12:52:00,
2013-12-06 08:00:00,61.0,59.0,29.92,SW,218,5.0,18.0,93,0.01,,,-99.99,,2013-12-06 13:00:00,
2013-12-06 08:42:00,61.0,59.0,29.92,SW,218,5.0,18.0,93,0.01,,,-99.99,,2013-12-06 13:42:00,
2013-12-06 08:52:00,61.0,59.0,29.92,SW,218,5.0,18.0,93,0.01,,,-99.99,,2013-12-06 13:52:00,
2013-12-06 09:00:00,62.0,60.0,29.94,NW,309,0.0,12.0,94,0.02,,,-99.99,,2013-12-06 14:00:00,
2013-12-06 09:42:00,62.0,60.0,29.94,NW,309,0.0,12.0,94,0.02,,,-99.99,,2013-12-06 14:42:00,
2013-12-06 09:53:00,62.0,60.0,29.94,NW,309,0.0,12.0,94,0.02,,,-99.99,,2013-12-06 14:53:00,
2013-12-06 10:00:00,52.0,50.0,29.98,NNE,17,5.0,19.0,92,0.01,,,-99.99,,2013-12-06 15:00:00,
2013-12-06 10:44:00,52.0,50.0,29.98,NNE,17,5.0,19.0,92,0.01,,,-99.99,,2013-12-06 15:44:00,
2013-12-06 10:54:00,52.0,50.0,29.98,NNE,17,5.0,19.0,92,0.01,,,-99.99,,2013-12-06 15:54:00,
2013-12-06 11:00:00,49.0,46.0,30.01,North,10,3.0,18.0,90,0.00,,,-99.99,,2013-12-06 16:00:00,
2013-12-06 11:43:00,49.0,46.0,30.01,North,10,3.0,18.0,90,0.00,,,-99.99,,2013-12-06 16:43:00,
2013-12-06 11:53:00,49.0,46.0,30.01,North,10,3.0,18.0,90,0.00,,,-99.99,,2013-12-06 16:53:00,
2013-12-06 12:00:00,48.0,45.0,30.01,North,11,4.0,15.0,88,0.00,,,-99.99,,2013-12-06 17:00:00,
2013-12-06 12:43:00,48.0,45.0,30.01,North,11,4.0,15.0,88,0.00,,,-99.99,,2013-12-06 17:43:00,
2013-12-06 12:52:00,48.0,45.0,30.01,North,11,4.0,15.0,88,0.00,,,-99.99,,2013-12-06 17:52:00,
2013-12-06 13:00:00,48.0,44.0,29.98,North,8,0.0,14.0,88,0.00,,,-99.99,,2013-12-06 18:00:00,
2013-12-06 13:42:00,48.0,44.0,29.98,North,8,0.0,14.0,88,0.00,,,-99.99,,2013-12-06 18:42:00,
2013-12-06 13:52:00,48.0,44.0,29.98,North,8,0.0,14.0,88,0.00,,,-99.99,,2013-12-06 18:52:00,
2013-12-06 14:00:00,46.0,44.0,30.01,North,1,0.0,14.0,90,0.02,,,-99.99,,2013-12-06 19:00:00,
2013-12-06 14:42:00,46.0,44.0,30.01,North,1,0.0,14.0,90,0.02,,,-99.99,,2013-12-06 19:42:00,
2013-12-06 14:52:00,46.0,44.0,30.01,North,1,0.0,14.0,90,0.02,,,-99.99,,2013-12-06 19:52:00,
2013-12-06 15:00:00,45.0,43.0,29.99,NNE,24,4.0,9.0,92,0.07,,,-99.99,,2013-12-06 20:00:00,
2013-12-06 15:42:00,45.0,43.0,29.99,NNE,24,4.0,9.0,92,0.07,,,-99.99,,2013-12-06 20:42:00,
2013-12-06 15:52:00,45.0,43.0,29.99,NNE,24,4.0,9.0,92,0.07,,,-99.99,,2013-12-06 20:52:00,
2013-12-06 16:00:00,44.0,42.0,30.02,NW,319,2.0,11.0,92,0.01,,,-99.99,,2013-12-06 21:00:00,
2013-12-06 16:43:00,44.0,42.0,30.02,NW,319,2.0,11.0,92,0.01,,,-99.99,,2013-12-06 21:43:00,
2013-12-06 16:54:00,44.0,42.0,30.02,NW,319,2.0,11.0,92,0.01,,,-99.99,,2013-12-06 21:54:00,
2013-12-06 17:00:00,43.0,41.0,30.03,North,2,5.0,10.0,93,0.01,,,-99.99,,2013-12-06 22:00:00,
2013-12-06 17:42:00,43.0,41.0,30.03,North,2,5.0,10.0,93,0.01,,,-99.99,,2013-12-06 22:42:00,
2013-12-06 17:53:00,43.0,41.0,30.03,North,2,5.0,10.0,93,0.01,,,-99.99,,2013-12-06 22:53:00,
2013-12-06 18:00:00,42.0,40.0,30.05,NNE,16,6.0,10.0,93,0.06,,,-99.99,,2013-12-06 23:00:00,
2013-12-06 18:42:00,42.0,40.0,30.05,NNE,16,6.0,10.0,93,0.06,,,-99.99,,2013-12-06 23:42:00,
2013-12-06 18:52:00,42.0,40.0,30.05,NNE,16,6.0,10.0,93,0.06,,,-99.99,,2013-12-06 23:52:00,
2013-12-06 19:00:00,42.0,40.0,30.07,North,3,7.0,10.0,93,0.03,,,-99.99,,2013-12-07 00:00:00,
2013-12-06 19:42:00,42.0,40.0,30.07,North,3,7.0,10.0,93,0.03,,,-99.99,,2013-12-07 00:42:00,
2013-12-06 19:52:00,42.0,40.0,30.07,North,3,7.0,10.0,93,0.03,,,-99.99,,2013-12-07 00:52:00,
2013-12-06 20:00:00,41.0,39.0,30.05,North,354,6.0,18.0,93,0.02,,,-99.99,,2013-12-07 01:00:00,
2013-12-06 20:42:00,41.0,39.0,30.05,North,354,6.0,18.0,93,0.02,,,-99.99,,2013-12-07 01:42:00,
2013-12-06 20:52:00,41.0,39.0,30.05,North,354,6.0,18.0,93,0.02,,,-99.99,,2013-12-07 01:52:00,
2013-12-06 21:00:00,40.0,39.0,30.09,North,11,3.0,13.0,93,0.03,,,-99.99,,2013-12-07 02:00:00,
2013-12-06 21:42:00,40.0,39.0,30.09,North,11,3.0,13.0,93,0.03,,,-99.99,,2013-12-07 02:42:00,
2013-12-06 21:53:00,40.0,39.0,30.09,North,11,3.0,13.0,93,0.03,,,-99.99,,2013-12-07 02:53:00,
2013-12-06 22:00:00,40.0,39.0,30.07,NE,50,0.0,17.0,94,0.03,,,-99.99,,2013-12-07 03:00:00,
2013-12-06 22:43:00,40.0,39.0,30.07,NE,50,0.0,17.0,94,0.03,,,-99.99,,2013-12-07 03:43:00,
2013-12-06 22:53:00,40.0,39.0,30.07,NE,50,0.0,17.0,94,0.03,,,-99.99,,2013-12-07 03:53:00,
2013-12-06 23:00:00,40.0,38.0,30.08,NNE,29,0.0,15.0,94,0.07,,,-99.99,,2013-12-07 04:00:00,
2013-12-06 23:43:00,40.0,38.0,30.08,NNE,29,0.0,15.0,94,0.07,,,-99.99,,2013-12-07 04:43:00,
2013-12-06 23:53:00,40.0,38.0,30.08,NNE,29,0.0,15.0,94,0.07,,,-99.99,,2013-12-07 04:53:00,